Epping, North Dakota
Current Conditions -  °F | °C
As of 5:52 AM on Tuesday 27 Jan 2015 (Local Time) from KISN Reporting Station
Clear Clear  
Wind Chill: 28°   Ceiling: Unl
Heat Index: 28°   Visibility: 10mi
Dew Point: 26°   Wind: 0mph
Humidity: 92%   Direction: NA
Pressure: 29.83"   Gusts: NA
Location:  48.28°N, 103.36°W
Report Text: KISN 271152Z AUTO 00000KT 10SM CLR M02/M03 A2983 RMK AO2 SLP121 T10221033 11011 21028 56009
Loading
Personal Weather Stations






























Interactive Weather Map New forecast layout! Learn more

10-Day Weather Forecast

Advertisements
Track Severe Weather on mobile